Decoded Metar for MPMG (PANAMA in PANAMA) (IATA:PAC) | Meteo·Mobile Aviation Weather
aviador You're here:

MPMG Decoded Metar

PANAMA in PANAMA
Report Time2018-11-14 11:00:00
UTC Time2018-11-14 11:34:14
Flight Rules vfr VFR
Wind330° at 06 kt
W.Decomp.*RWY 36: 5.3 kt HW 2.8 kt LCW
W.Rank330° ranks 2
Current wind is below 330° avg. (6.1)
Visibility9999 m
Phenomena:N/A
Clouds:Few 008 Hf
Few CB 016 Hf
Scattered 080 Hf
Expected CloudBase > 800 ft AGL from Temp-Dew spread
CeilingNone
Temp26°C (ISA +11)
Dew Point24°C (89% RH)
QNH1009 hPa
Density Alt1,850 ft
Elevation43 ft
Report Wrong Elevation
Raw Report
MPMG 141100Z 33006KT 9999 FEW008 FEW016CB SCT080 26/24 Q1009
NOSIG=

Extra information for MPMG:More info

Metar Taf Metar & Taf Last 4 Metars F.Rules Stats Wind Profile Meteogram Temp Stats Airport Information Weather charts Add Link Nearby VenuesMetar ALERT Operation Metar Decoded Social comments